National Oceanic Atmosphere Administration National Weather Service Headquarters National Weather Service Headquarters
NOAA logo WFO Anchorage Scalable transition graphic NWS logo
Transition from title bar to navgation bar   Aviation Weather 01 AKDT 
blankspace Home   |   Mobile   |   Social Media   |   Mesonet   |   Surface Map   |   Radar   |   Submit Storm Reports =09 GMT 

LocalForecast by City, St or Zip Code

spacer

Forecasts/Products
  Public
  Forecast Discussion
    - With Glossary
  Aviation
  Marine
  Hydrology(RFC)
  Rivers & Lakes AHPS
  Ice Desk
  TV Weather
  Fire Weather
  Avalanche
  Travel 511
  Graphical
  xml logo RSS Feeds
  Marine FTPMail

spacer

Data
  Mesonet
  Model Graphics
  Local Model
  Observations
  Marine Obs
  Satellite/Radar
  Vent Factor
  Soaring Index
  Weather Links

spacer

Climate
  PAFC Climate
  Interactive Climate
  PAFC Records
  Local
  National
  More

spacer

Outreach
  About Us
  Community Outreach
  Kids' Page
  Tour/Speaker Request
  Weather Classroom
  Social Media

spacer

Reports
  COOP Observers
  Local Storm Reports
  Spotter Page
  Submit a Storm Report

spacer

Miscellaneous
  Archived Alaska Weather Stories
  Student Career Opportunities
  Research Papers

spacer

Print Friendly/
Low Bandwidth

  Public Forecasts
  Marine Forecasts

spacer

Contact Us
  mailto pafcweb

spacer

Facebook Follow the National Weather Service in Alaska on Twitter
USA.gov is the U.S. government's official web portal to all federal, state and local government web resources and services.


 ICAO ID:   AAWU Graphics

Internet access to TAFs and METAR observations is for planning purposes only. We can not guarantee the timeliness of internet products. Before flying please get a formal pilot briefing (1-800-992-7433) and ALWAYS file a Flight Plan!Pilot briefings are provided to licensed aircraft pilots, ONLY! Others may not use the above number to obtain weather information.

Check out the Key to TAFs and METARs for help with decoding the information.

A 12 hour summary of TAFs can be found here.

PAFA TAF
PAFA 310526Z 3106/0112  VRB04KT P6SM FEW070 BKN200
     FM312100 25007KT P6SM FEW050 BKN100
     FM010800 VRB05KT P6SM VCSH OVC100=


PAFA 310853Z 00000KT 10SM FEW070 BKN200 13/09 A3017 RMK AO2 SLP221
     T01330094 402390083 51005=
METAR PAFA 310853Z 00000KT 10SM FEW070 BKN200 13/09 A3017=
METAR PAFA 310753Z 00000KT 10SM BKN200 15/11 A3017 RMK AO2 SLP221
     T01500111=
METAR PAFA 310753Z 00000KT 10SM BKN200 15/11 A3017=
METAR PAFA 310653Z 00000KT 10SM BKN180 BKN250 16/11 A3016 RMK AO2 SLP218
     T01610111=
METAR PAFA 310653Z 00000KT 10SM BKN180 BKN250 16/11 A3016=
METAR PAFA 310553Z 23003KT 10SM FEW070 BKN200 19/09 A3016 RMK AO2 SLP216
     T01890089 10239 20189 53001=
METAR PAFA 310553Z 23003KT 10SM FEW070 BKN200 19/09 A3016=


National Weather Service
Anchorage Forecast Office
6930 Sand Lake Road
Anchorage, Ak 99502
(907) 266-5105 M-F/7-5pm
About Us
Career Opportunities
Glossary
Disclaimer
Privacy Policy
Credits
Alaska Weather Information Line:
1-800-472-0391